Norton, Kansas
Current Conditions -  °F | °C
As of 10:53 PM on Tuesday 25 Nov 2014 (Local Time) from KHLC Reporting Station
Overcast Overcast  
Wind Chill: 40°   Ceiling: 8000
Heat Index: 46°   Visibility: 10mi
Dew Point: 25°   Wind: 15mph
Humidity: 44%   Direction: 330°NNW
Pressure: 29.95"   Gusts: NA
Location:  39.83°N, 99.89°W
Report Text: KHLC 260453Z AUTO 33013KT 10SM OVC080 08/M04 A2995 RMK AO2 SLP146 T00781039
Loading
Personal Weather Stations






























Interactive Weather Map New forecast layout! Learn more

10-Day Weather Forecast

Advertisements
Track Severe Weather on mobile